Historyczne dane pomiarowe

Dodano dane terminowe – wersja testowa.

Dane z okresu 1951-2019

Wersja bazy: 1.34 [2019-03-16, lista zmian], aktualizacja planowana na 2019-04-15

Dane meteo z obszaru Polski uzyskane na podstawie danych udostępnionych przez Instytut Meteorologii i Gospodarki Wodnej – Państwowy Instytut Badawczy.

 

Wybierz Datę:    

       

TemperaturaWilgotnośćWiatrCiśnienieOpadyŚniegCzas trwania zjawisk
 Stacja t tx tn tng RH VA  wxwx mslp ppp RRR   cm mm wxwxwxwxwxwxwx
1969-01-17 -0.7 0.4---- 8.0 5.0---- 3.2-- 2---------
1969-01-18 -0.2 0.1---- 8.0 4.0---- 0.0-- 7---------
1969-01-19 0.2 0.6 -0.4--- 8.0 3.3---- 0.0-- 5---------
1969-01-20 -6.1 -0.1 -8.3--- 8.0 4.3---- 2.8-- 4---------
1969-01-21-10.6 -8.2-13.9--- 4.3 7.7---- 0.0-- 5---------
1969-01-22 -2.7 0.4-11.8--- 8.0 3.7---- 4.3-- 5---------
1969-01-23 0.8 3.2 -0.4--- 8.0 7.0---- 0.3-- 3---------
1969-01-24 -0.3 0.4 -1.0--- 8.0 3.3---- 0.8-- 4---------
1969-01-25 -6.0 -0.5 -8.9--- 7.0 0.0---- 0.0-- 6---------
1969-01-26 -3.8 -2.6-10.3--- 8.0 4.0---- 0.0-- 6---------
1969-01-27 -3.6 0.4 -5.4--- 4.0 2.3---- 0.0-- 5---------
1969-01-28 0.1 1.2 -6.2--- 8.0 0.7---- 0.0-- 5---------
1969-01-29 2.2 3.5 -0.1--- 8.0 3.0---- 6.1-- 4---------
1969-01-30 2.0 2.8 0.3--- 8.0 5.0---- 3.0------------
1969-01-31 2.6 4.8 1.5--- 7.3 5.7---- 0.0------------
1969-02-01 1.0 2.6 0.0--- 6.3 3.7---- 0.0------------
1969-02-02 0.7 2.5 -0.5--- 8.0 5.0---- 3.8------------
1969-02-03 -0.2 1.0 -1.0--- 8.0 9.7---- 3.4------------
1969-02-04 -4.2 0.5 -6.8--- 4.7 3.3---- 0.0-- 11---------
1969-02-05 -9.7 -1.7-12.2--- 1.0 0.0---- 0.0-- 11---------
1969-02-06 -8.5 -2.1-15.7--- 1.7 1.7---- 0.0-- 11---------
1969-02-07 -3.5 -1.7 -8.6--- 6.3 5.7---- 0.0-- 11---------
1969-02-08 -3.0 -1.7 -4.1--- 8.0 3.0---- 0.7-- 12---------
1969-02-09 -3.3 -1.5 -8.4--- 4.7 0.7---- 0.0-- 13---------
1969-02-10 -3.7 -1.8 -5.1--- 8.0 0.7---- 0.8-- 13---------
1969-02-11 -7.4 -4.9 -9.6--- 8.0 1.0---- 3.0-- 15---------
1969-02-12-13.0 -5.2-16.5--- 5.0 3.7---- 0.0-- 20---------
1969-02-13-13.4-10.0-17.4--- 7.7 11.0---- 1.5-- 20---------
1969-02-14-15.9 -9.2-20.6--- 3.0 0.0---- 0.0-- 25---------
1969-02-15 -8.9 -3.0-26.0--- 7.7 8.0---- 0.0-- 25---------
206.3 ms

 

Źródłem pochodzenia danych jest Instytut Meteorologii i Gospodarki Wodnej – Państwowy Instytut Badawczy. Dane Instytutu Meteorologii i Gospodarki Wodnej – Państwowego Instytutu Badawczego zostały przetworzone.

Dane źródłowe można odnaleźć na stronie https://dane.imgw.pl